Time;durP1;ratioP1;P1;durP2;ratioP2;P2;SDS_P1;SDS_P2;PMS_P1;PMS_P2;Temp;Humidity;BMP_temperature;BMP_pressure;BME280_temperature;BME280_humidity;BME280_pressure;Samples;Min_cycle;Max_cycle;Signal;HPM_P1;HPM_P2
2022/05/21 00:07:10;;;;;;;0.93;0.40;;;22.90;99.90;;;;;;20829651;28;20227;-70
2022/05/21 00:17:12;;;;;;;1.55;0.50;;;;;;;;;;20829394;28;20218;-71
2022/05/21 00:27:14;;;;;;;1.17;0.43;;;;;;;;;;20827990;28;20261;-70
2022/05/21 00:37:15;;;;;;;2.92;0.57;;;;;;;;;;20824578;28;20288;-70
2022/05/21 00:47:17;;;;;;;0.70;0.40;;;;;;;;;;20827524;28;20302;-70
2022/05/21 00:57:24;;;;;;;1.23;0.50;;;22.10;99.20;;;;;;20826150;28;20575;-72
2022/05/21 01:07:26;;;;;;;0.82;0.40;;;;;;;;;;20825986;28;20206;-70
2022/05/21 01:17:28;;;;;;;0.80;0.57;;;;;;;;;;20823515;28;20220;-71
2022/05/21 01:27:31;;;;;;;0.85;0.40;;;;;;;;;;20823355;28;20281;-71
2022/05/21 01:37:33;;;;;;;0.40;0.40;;;;;;;;;;20821393;28;20697;-71
2022/05/21 01:47:37;;;;;;;0.70;0.50;;;;;;;;;;20817704;28;20588;-70
2022/05/21 01:57:39;;;;;;;0.77;0.40;;;;;;;;;;20821331;28;20224;-72
2022/05/21 02:07:41;;;;;;;1.92;0.63;;;;;;;;;;20821007;28;20488;-70
2022/05/21 02:17:42;;;;;;;0.75;0.40;;;;;;;;;;20820132;28;20623;-70
2022/05/21 02:27:44;;;;;;;1.23;0.53;;;20.90;99.90;;;;;;20818510;28;20242;-70
2022/05/21 02:48:06;;;;;;;0.82;0.40;;;;;;;;;;20813473;28;20272;-71
2022/05/21 02:58:08;;;;;;;0.40;0.40;;;;;;;;;;20817697;28;20294;-70
2022/05/21 03:18:31;;;;;;;0.50;0.30;;;;;;;;;;20832084;28;20215;-72
2022/05/21 03:28:33;;;;;;;1.60;0.50;;;;;;;;;;20831562;28;20205;-75
2022/05/21 03:38:35;;;;;;;0.30;0.30;;;;;;;;;;20830407;28;20260;-70
2022/05/21 03:48:36;;;;;;;0.20;0.20;;;19.70;99.90;;;;;;20831219;28;20657;-70
2022/05/21 03:58:39;;;;;;;0.27;0.20;;;;;;;;;;20829038;28;20237;-71
2022/05/21 04:08:41;;;;;;;0.27;0.27;;;;;;;;;;20830704;28;20202;-70
2022/05/21 04:18:42;;;;;;;1.43;0.50;;;;;;;;;;20825648;28;20209;-70
2022/05/21 04:28:44;;;;;;;1.07;0.50;;;;;;;;;;20827499;28;20218;-73
2022/05/21 04:38:47;;;;;;;0.27;0.23;;;;;;;;;;20825341;28;20238;-70
2022/05/21 04:48:49;;;;;;;0.97;0.50;;;;;;;;;;20827756;28;20275;-70
2022/05/21 04:58:52;;;;;;;0.33;0.30;;;;;;;;;;20826615;28;20234;-70
2022/05/21 05:08:53;;;;;;;0.90;0.40;;;;;;;;;;20809179;28;20268;-71
2022/05/21 05:18:55;;;;;;;2.00;0.60;;;;;;;;;;20823613;28;20264;-70
2022/05/21 05:28:57;;;;;;;2.93;0.43;;;;;;;;;;20823774;28;20856;-70
2022/05/21 05:38:59;;;;;;;0.80;0.40;;;;;;;;;;20820890;28;20225;-70
2022/05/21 05:49:04;;;;;;;0.33;0.23;;;;;;;;;;20821778;28;20569;-71
2022/05/21 06:09:26;;;;;;;0.60;0.40;;;;;;;;;;20821836;28;20237;-70
2022/05/21 06:19:29;;;;;;;0.67;0.30;;;;;;;;;;20813339;28;20234;-70
2022/05/21 06:29:30;;;;;;;0.77;0.57;;;;;;;;;;20816924;28;20271;-73
2022/05/21 06:39:33;;;;;;;1.10;0.40;;;19.70;99.90;;;;;;20817858;28;20216;-70
2022/05/21 06:49:35;;;;;;;0.40;0.33;;;;;;;;;;20819603;28;20205;-72
2022/05/21 06:59:37;;;;;;;0.60;0.40;;;;;;;;;;20812906;28;20233;-72
2022/05/21 07:09:39;;;;;;;0.83;0.47;;;;;;;;;;20817392;28;20262;-72
2022/05/21 07:19:40;;;;;;;1.77;0.50;;;;;;;;;;20807875;28;20551;-72
2022/05/21 07:29:43;;;;;;;1.13;0.50;;;21.40;99.90;;;;;;20812488;28;20214;-71
2022/05/21 07:39:45;;;;;;;2.20;0.70;;;;;;;;;;20816292;28;20210;-71
2022/05/21 07:49:47;;;;;;;2.53;0.60;;;;;;;;;;20825593;28;20210;-71
2022/05/21 07:59:49;;;;;;;2.63;0.60;;;;;;;;;;20798440;28;20216;-71
2022/05/21 08:09:51;;;;;;;1.17;0.70;;;22.00;99.90;;;;;;20831997;28;20235;-72
2022/05/21 08:19:53;;;;;;;1.70;0.70;;;;;;;;;;20827462;28;20226;-71
2022/05/21 08:29:57;;;;;;;2.10;0.60;;;;;;;;;;20827379;28;20752;-71
2022/05/21 08:39:59;;;;;;;1.80;0.63;;;;;;;;;;20829053;28;20223;-71
2022/05/21 08:50:13;;;;;;;0.70;0.40;;;21.60;98.30;;;;;;20824462;28;20649;-71
2022/05/21 09:00:19;;;;;;;1.00;0.40;;;;;;;;;;20825711;28;20213;-71
2022/05/21 09:10:39;;;;;;;2.83;0.80;;;;;;;;;;20814423;28;20265;-72
2022/05/21 09:21:08;;;;;;;0.40;0.30;;;;;;;;;;20824704;28;20211;-70
2022/05/21 09:31:11;;;;;;;1.30;0.50;;;21.60;99.90;;;;;;20818322;28;20218;-69
2022/05/21 09:41:18;;;;;;;0.27;0.20;;;;;;;;;;20819162;28;20705;-70
2022/05/21 09:51:30;;;;;;;0.87;0.20;;;;;;;;;;20824012;28;20198;-71
2022/05/21 10:01:41;;;;;;;0.47;0.23;;;23.00;99.20;;;;;;20821874;28;20592;-72
2022/05/21 10:12:07;;;;;;;1.33;0.40;;;;;;;;;;20820794;28;20282;-73
2022/05/21 10:22:28;;;;;;;2.00;0.50;;;;;;;;;;20811250;28;20776;-73
2022/05/21 10:32:32;;;;;;;0.50;0.32;;;;;;;;;;20818296;28;20263;-73
2022/05/21 10:42:40;;;;;;;0.82;0.50;;;;;;;;;;20813216;28;20268;-73
2022/05/21 10:52:54;;;;;;;0.52;0.32;;;;;;;;;;20817506;28;20202;-72
2022/05/21 11:03:08;;;;;;;0.82;0.50;;;25.00;89.90;;;;;;20817997;28;20226;-73
2022/05/21 11:13:26;;;;;;;0.57;0.40;;;24.20;81.10;;;;;;20819011;28;20574;-74
2022/05/21 11:23:35;;;;;;;1.30;0.50;;;;;;;;;;20823660;28;20214;-74
2022/05/21 11:54:50;;;;;;;0.70;0.38;;;24.30;90.50;;;;;;20831459;28;20216;-74
2022/05/21 12:04:55;;;;;;;1.48;0.30;;;23.70;92.30;;;;;;20789592;28;20526;-74
2022/05/21 12:15:09;;;;;;;0.30;0.30;;;;;;;;;;20829336;28;20218;-72
2022/05/21 12:25:13;;;;;;;0.90;0.40;;;;;;;;;;20829832;28;20250;-72
2022/05/21 12:35:34;;;;;;;2.28;0.40;;;;;;;;;;20826874;28;20225;-73
2022/05/21 12:45:54;;;;;;;0.22;0.20;;;;;;;;;;20828628;28;20224;-74
2022/05/21 12:56:05;;;;;;;0.20;0.20;;;;;;;;;;20826370;28;20216;-73
2022/05/21 13:06:09;;;;;;;0.63;0.40;;;;;;;;;;20826222;28;20547;-73
2022/05/21 13:16:16;;;;;;;0.40;0.40;;;26.00;84.50;;;;;;20936504;22;20219;-73
2022/05/21 13:26:23;;;;;;;0.90;0.30;;;;;;;;;;20906551;28;20272;-73
2022/05/21 13:36:31;;;;;;;0.28;0.20;;;25.60;85.50;;;;;;20888753;28;20216;-73
2022/05/21 13:46:36;;;;;;;0.35;0.30;;;26.20;77.60;;;;;;20904507;28;20282;-73
2022/05/21 13:56:43;;;;;;;0.47;0.30;;;;;;;;;;20905015;28;20267;-73
2022/05/21 14:06:47;;;;;;;1.58;0.40;;;;;;;;;;20886204;28;20266;-73
2022/05/21 14:16:49;;;;;;;0.63;0.30;;;;;;;;;;20868847;28;20251;-73
2022/05/21 14:26:55;;;;;;;0.20;0.20;;;26.40;71.70;;;;;;20902501;28;20219;-73
2022/05/21 14:36:57;;;;;;;1.33;0.40;;;;;;;;;;20902618;28;20250;-73
2022/05/21 14:57:20;;;;;;;3.03;0.32;;;;;;;;;;20906564;28;20287;-73
2022/05/21 15:07:22;;;;;;;0.65;0.30;;;;;;;;;;20918088;28;20189;-73
2022/05/21 15:17:27;;;;;;;1.25;0.43;;;;;;;;;;20917799;28;20213;-73
2022/05/21 15:27:29;;;;;;;0.30;0.22;;;;;;;;;;20916757;28;20185;-73
2022/05/21 15:37:30;;;;;;;0.47;0.35;;;;;;;;;;20916737;28;20216;-73
2022/05/21 15:47:32;;;;;;;0.93;0.30;;;;;;;;;;20915737;28;20189;-72
2022/05/21 15:57:34;;;;;;;0.47;0.28;;;;;;;;;;20913869;28;20706;-72
2022/05/21 16:07:36;;;;;;;0.73;0.30;;;;;;;;;;20915878;28;20212;-73
2022/05/21 16:17:40;;;;;;;0.30;0.30;;;;;;;;;;20915872;28;20310;-73
2022/05/21 16:27:49;;;;;;;1.00;0.30;;;;;;;;;;20899276;28;20293;-72
2022/05/21 16:37:51;;;;;;;3.75;0.50;;;;;;;;;;20911251;28;20219;-72
2022/05/21 16:47:53;;;;;;;0.25;0.25;;;25.80;80.40;;;;;;20911806;28;20235;-72
2022/05/21 16:57:55;;;;;;;1.13;0.60;;;;;;;;;;20906028;28;20265;-74
2022/05/21 17:07:57;;;;;;;3.97;1.55;;;;;;;;;;20890477;28;20219;-73
2022/05/21 17:17:59;;;;;;;5.50;0.93;;;;;;;;;;20906186;28;20326;-71
2022/05/21 17:38:22;;;;;;;0.70;0.30;;;24.50;88.40;;;;;;20905552;28;20231;-72
2022/05/21 17:48:24;;;;;;;0.65;0.30;;;;;;;;;;20888426;28;20212;-72
2022/05/21 17:58:27;;;;;;;1.23;0.40;;;24.50;84.00;;;;;;20886922;28;20268;-71
2022/05/21 18:08:29;;;;;;;0.30;0.30;;;;;;;;;;20901272;28;20219;-73
2022/05/21 18:28:53;;;;;;;0.68;0.35;;;;;;;;;;20854377;28;20229;-70
2022/05/21 18:38:55;;;;;;;0.93;0.35;;;;;;;;;;20852291;28;20215;-70
2022/05/21 18:48:58;;;;;;;0.60;0.28;;;;;;;;;;20872734;28;20303;-70
2022/05/21 18:59:05;;;;;;;0.98;0.30;;;;;;;;;;20881138;28;20279;-72
2022/05/21 19:09:07;;;;;;;0.80;0.30;;;;;;;;;;20908588;28;20696;-71
2022/05/21 19:19:12;;;;;;;0.85;0.30;;;;;;;;;;20732251;22;20235;-74
2022/05/21 19:29:15;;;;;;;0.75;0.60;;;;;;;;;;20312012;28;20253;-75
2022/05/21 19:49:39;;;;;;;1.52;0.40;;;;;;;;;;20451125;28;20573;-72
2022/05/21 19:59:41;;;;;;;0.82;0.52;;;;;;;;;;20308787;29;20228;-75
2022/05/21 20:09:43;;;;;;;1.90;0.50;;;;;;;;;;20317411;28;20777;-73
2022/05/21 20:19:45;;;;;;;1.48;0.38;;;;;;;;;;20275873;28;20304;-72
2022/05/21 20:29:47;;;;;;;3.33;0.68;;;;;;;;;;20309498;29;20278;-72
2022/05/21 20:39:49;;;;;;;2.83;0.60;;;;;;;;;;20292381;29;20252;-73
2022/05/21 20:49:51;;;;;;;0.90;0.40;;;;;;;;;;20329452;28;20280;-73
2022/05/21 20:59:56;;;;;;;1.42;0.60;;;;;;;;;;20291567;28;20686;-73
2022/05/21 21:09:58;;;;;;;1.10;0.47;;;;;;;;;;20275890;28;20217;-74
2022/05/21 21:20:02;;;;;;;1.70;0.50;;;;;;;;;;20294469;29;20236;-72
2022/05/21 21:30:06;;;;;;;1.58;0.50;;;21.80;99.90;;;;;;20301457;29;20218;-74
2022/05/21 21:40:10;;;;;;;1.57;0.60;;;21.70;99.90;;;;;;20335394;28;20273;-74
2022/05/21 21:50:13;;;;;;;1.35;0.52;;;21.60;99.10;;;;;;20300829;29;20279;-74
2022/05/21 22:11:16;;;;;;;0.90;0.50;;;;;;;;;;20470785;28;20745;-74
2022/05/21 22:21:17;;;;;;;0.70;0.40;;;;;;;;;;20299559;29;20228;-74
2022/05/21 22:31:19;;;;;;;1.15;0.40;;;21.00;99.40;;;;;;20372611;28;20212;-71
2022/05/21 22:41:22;;;;;;;1.20;0.50;;;20.90;99.90;;;;;;20352303;28;20227;-74
2022/05/21 22:51:26;;;;;;;0.50;0.40;;;;;;;;;;20292197;28;20223;-71
2022/05/21 23:01:29;;;;;;;1.03;0.40;;;;;;;;;;20327530;28;20775;-74
2022/05/21 23:11:30;;;;;;;0.60;0.40;;;;;;;;;;20296952;28;20211;-74
2022/05/21 23:21:33;;;;;;;0.67;0.50;;;;;;;;;;20335183;28;20242;-73
2022/05/21 23:31:35;;;;;;;1.37;0.73;;;;;;;;;;20310023;28;20359;-73
2022/05/21 23:41:36;;;;;;;0.93;0.70;;;;;;;;;;20366210;28;20226;-73
2022/05/21 23:51:39;;;;;;;0.80;0.60;;;;;;;;;;20308600;29;20245;-72
